PWSweather.com
Personal Weather Stations
Station Observations
OBSERWACJEMETEO
Skórowo, SkorowoPL 76-230

SkórowoSkorowoPL 76-230

Lat: 54.5030556, Lon: 17.5277777

Elevation: 77

Station Type: WH2080

http://obserwacjemeteo.eu/

Latest ConditionsUpdated 8:10:03 AM GMT+01:01 Tuesday, Jul 16, 2019
Currently Today's Max Today's Min Today's Average
Temperature 58.1°F14.5°C 58.1°F14.5°C 55.2°F12.9°C 56.4°F13.6°C
Dew Point 56.7°F13.7°C 56.7°F13.7°C 50.2°F10.1°C 51.9°F11.1°C
Winds 2.2 mph SE3.5 kmh SE 3.1 mph -5.0 kmh - - 1.4 mph 2.3 kmh
Wind Gusts 3.8 mph6.1 kmh 6.9 mph11.1 kmh - -
Humidity 95% 95% 80% 85%
Pressure 29.78 in1008.5 mb 29.86 in1011.2 mb 29.78 in1008.5 mb -
Precipitation - 0.17 in4.3 mm - -
Hour Temp Dew Point Humidity Winds Wind Gusts Pressure Precip Precip Rate Daily Precip Total
08:10 AM 58.1°F14.5°C 56.7°F13.7°C 95% 2.2 mph SE3.5 kmh SE 3.8 mph6.1 kmh 29.78 in1008.5 mb 0.05 in1.3 mm 0.00 in0.0 mm 0.17 in4.3 mm
08:00 AM 57.6°F14.2°C 56.1°F13.4°C 95% 2.2 mph SE3.5 kmh SE 3.8 mph6.1 kmh 29.78 in1008.5 mb 0.11 in2.8 mm 0.00 in0.0 mm 0.17 in4.3 mm
07:50 AM 57.0°F13.9°C 55.6°F13.1°C 95% 2.2 mph SE3.5 kmh SE 3.8 mph6.1 kmh 29.78 in1008.5 mb 0.11 in2.8 mm 0.00 in0.0 mm 0.17 in4.3 mm
07:40 AM 56.1°F13.4°C 54.4°F12.4°C 94% 0.7 mph ESE1.1 kmh ESE 3.1 mph5.0 kmh 29.78 in1008.5 mb 0.13 in3.3 mm 0.00 in0.0 mm 0.15 in3.8 mm
07:30 AM 55.8°F13.2°C 53.8°F12.1°C 93% 0.7 mph ESE1.1 kmh ESE 3.1 mph5.0 kmh 29.80 in1009.1 mb 0.15 in3.8 mm 0.06 in1.5 mm 0.15 in3.8 mm
07:20 AM 55.2°F12.9°C 53.2°F11.8°C 93% 0.7 mph SSE1.1 kmh SSE 2.2 mph3.5 kmh 29.79 in1008.8 mb 0.14 in3.6 mm 0.18 in4.6 mm 0.14 in3.6 mm
07:10 AM 55.2°F12.9°C 53.2°F11.8°C 93% 0.7 mph S1.1 kmh S 3.1 mph5.0 kmh 29.79 in1008.8 mb 0.11 in2.8 mm 0.30 in7.6 mm 0.11 in2.8 mm
07:00 AM 55.4°F13.0°C 53.1°F11.7°C 92% Calm Calm 4.5 mph7.2 kmh 29.79 in1008.8 mb 0.06 in1.5 mm 0.00 in0.0 mm 0.06 in1.5 mm
06:50 AM 55.6°F13.1°C 53.3°F11.8°C 92% 3.1 mph S5.0 kmh S 4.5 mph7.2 kmh 29.80 in1009.1 mb 0.06 in1.5 mm 0.24 in6.1 mm 0.06 in1.5 mm
06:40 AM 55.6°F13.1°C 53.3°F11.8°C 92% 0.7 mph SW1.1 kmh SW 3.8 mph6.1 kmh 29.79 in1008.8 mb 0.02 in0.5 mm 0.12 in3.0 mm 0.02 in0.5 mm
06:30 AM 55.8°F13.2°C 53.5°F11.9°C 92% 1.6 mph S2.6 kmh S 3.1 mph5.0 kmh 29.79 in1008.8 mb 0.00 in0.0 mm 0.00 in0.0 mm 0.00 in0.0 mm
06:20 AM 55.9°F13.3°C 53.7°F12.1°C 92% 0.7 mph E1.1 kmh E 3.1 mph5.0 kmh 29.79 in1008.8 mb 0.00 in0.0 mm 0.00 in0.0 mm 0.00 in0.0 mm
06:10 AM 55.6°F13.1°C 53.0°F11.7°C 91% 1.6 mph S2.6 kmh S 3.8 mph6.1 kmh 29.79 in1008.8 mb 0.00 in0.0 mm 0.00 in0.0 mm 0.00 in0.0 mm
06:00 AM 55.2°F12.9°C 52.3°F11.3°C 90% 1.6 mph S2.6 kmh S 4.5 mph7.2 kmh 29.79 in1008.8 mb 0.00 in0.0 mm 0.00 in0.0 mm 0.00 in0.0 mm
05:50 AM 55.4°F13.0°C 51.9°F11.1°C 88% 1.6 mph SE2.6 kmh SE 5.4 mph8.7 kmh 29.79 in1008.8 mb 0.00 in0.0 mm 0.00 in0.0 mm 0.00 in0.0 mm
05:40 AM 55.8°F13.2°C 51.3°F10.7°C 85% 2.2 mph SSE3.5 kmh SSE 3.8 mph6.1 kmh 29.80 in1009.1 mb 0.00 in0.0 mm 0.00 in0.0 mm 0.00 in0.0 mm
05:30 AM 55.9°F13.3°C 51.2°F10.7°C 84% 0.7 mph W1.1 kmh W 3.1 mph5.0 kmh 29.80 in1009.1 mb 0.00 in0.0 mm 0.00 in0.0 mm 0.00 in0.0 mm
05:20 AM 56.1°F13.4°C 51.0°F10.6°C 83% 2.2 mph N3.5 kmh N 3.8 mph6.1 kmh 29.80 in1009.1 mb 0.00 in0.0 mm 0.00 in0.0 mm 0.00 in0.0 mm
05:10 AM 56.1°F13.4°C 50.7°F10.4°C 82% 2.2 mph SSW3.5 kmh SSW 3.8 mph6.1 kmh 29.79 in1008.8 mb 0.00 in0.0 mm 0.00 in0.0 mm 0.00 in0.0 mm
05:00 AM 56.3°F13.5°C 50.9°F10.5°C 82% 1.6 mph E2.6 kmh E 3.8 mph6.1 kmh 29.80 in1009.1 mb 0.00 in0.0 mm 0.00 in0.0 mm 0.00 in0.0 mm
04:50 AM 56.3°F13.5°C 50.9°F10.5°C 82% 1.6 mph NW2.6 kmh NW 5.4 mph8.7 kmh 29.80 in1009.1 mb 0.00 in0.0 mm 0.00 in0.0 mm 0.00 in0.0 mm
04:40 AM 56.3°F13.5°C 50.6°F10.3°C 81% 3.1 mph N5.0 kmh N 6.0 mph9.7 kmh 29.80 in1009.1 mb 0.00 in0.0 mm 0.00 in0.0 mm 0.00 in0.0 mm
04:30 AM 56.3°F13.5°C 50.6°F10.3°C 81% 0.7 mph NE1.1 kmh NE 6.9 mph11.1 kmh 29.80 in1009.1 mb 0.00 in0.0 mm 0.00 in0.0 mm 0.00 in0.0 mm
04:20 AM 56.3°F13.5°C 50.6°F10.3°C 81% 1.6 mph SE2.6 kmh SE 3.1 mph5.0 kmh 29.80 in1009.1 mb 0.00 in0.0 mm 0.00 in0.0 mm 0.00 in0.0 mm
04:10 AM 56.5°F13.6°C 50.4°F10.2°C 80% 1.6 mph SSE2.6 kmh SSE 3.1 mph5.0 kmh 29.80 in1009.1 mb 0.00 in0.0 mm 0.00 in0.0 mm 0.00 in0.0 mm
04:00 AM 56.5°F13.6°C 50.4°F10.2°C 80% 1.6 mph SSW2.6 kmh SSW 3.1 mph5.0 kmh 29.81 in1009.5 mb 0.00 in0.0 mm 0.00 in0.0 mm 0.00 in0.0 mm
03:50 AM 56.3°F13.5°C 50.2°F10.1°C 80% 1.6 mph SSW2.6 kmh SSW 3.8 mph6.1 kmh 29.81 in1009.5 mb 0.00 in0.0 mm 0.00 in0.0 mm 0.00 in0.0 mm
03:40 AM 56.3°F13.5°C 50.2°F10.1°C 80% 0.7 mph SE1.1 kmh SE 4.5 mph7.2 kmh 29.81 in1009.5 mb 0.00 in0.0 mm 0.00 in0.0 mm 0.00 in0.0 mm
03:30 AM 56.3°F13.5°C 50.2°F10.1°C 80% 3.1 mph SE5.0 kmh SE 5.4 mph8.7 kmh 29.80 in1009.1 mb 0.00 in0.0 mm 0.00 in0.0 mm 0.00 in0.0 mm
03:20 AM 56.3°F13.5°C 50.6°F10.3°C 81% 3.1 mph SE5.0 kmh SE 4.5 mph7.2 kmh 29.80 in1009.1 mb 0.00 in0.0 mm 0.00 in0.0 mm 0.00 in0.0 mm
03:10 AM 56.3°F13.5°C 50.6°F10.3°C 81% 2.2 mph NE3.5 kmh NE 3.8 mph6.1 kmh 29.81 in1009.5 mb 0.00 in0.0 mm 0.00 in0.0 mm 0.00 in0.0 mm
03:00 AM 56.5°F13.6°C 50.7°F10.4°C 81% 1.6 mph SE2.6 kmh SE 4.5 mph7.2 kmh 29.82 in1009.8 mb 0.00 in0.0 mm 0.00 in0.0 mm 0.00 in0.0 mm
02:50 AM 56.5°F13.6°C 50.7°F10.4°C 81% 1.6 mph S2.6 kmh S 3.1 mph5.0 kmh 29.83 in1010.2 mb 0.00 in0.0 mm 0.00 in0.0 mm 0.00 in0.0 mm
02:40 AM 56.5°F13.6°C 50.7°F10.4°C 81% 2.2 mph SE3.5 kmh SE 3.8 mph6.1 kmh 29.82 in1009.8 mb 0.00 in0.0 mm 0.00 in0.0 mm 0.00 in0.0 mm
02:30 AM 56.5°F13.6°C 50.7°F10.4°C 81% 1.6 mph SE2.6 kmh SE 3.8 mph6.1 kmh 29.82 in1009.8 mb 0.00 in0.0 mm 0.00 in0.0 mm 0.00 in0.0 mm
02:20 AM 56.7°F13.7°C 50.9°F10.5°C 81% 1.6 mph SE2.6 kmh SE 3.8 mph6.1 kmh 29.82 in1009.8 mb 0.00 in0.0 mm 0.00 in0.0 mm 0.00 in0.0 mm
02:10 AM 56.7°F13.7°C 50.9°F10.5°C 81% 1.6 mph SE2.6 kmh SE 3.1 mph5.0 kmh 29.83 in1010.2 mb 0.00 in0.0 mm 0.00 in0.0 mm 0.00 in0.0 mm
02:00 AM 56.8°F13.8°C 51.1°F10.6°C 81% 1.6 mph SE2.6 kmh SE 3.1 mph5.0 kmh 29.84 in1010.5 mb 0.00 in0.0 mm 0.00 in0.0 mm 0.00 in0.0 mm
01:50 AM 56.8°F13.8°C 51.4°F10.8°C 82% 1.6 mph SSE2.6 kmh SSE 3.1 mph5.0 kmh 29.84 in1010.5 mb 0.00 in0.0 mm 0.00 in0.0 mm 0.00 in0.0 mm
01:40 AM 56.8°F13.8°C 51.4°F10.8°C 82% 1.6 mph E2.6 kmh E 3.1 mph5.0 kmh 29.84 in1010.5 mb 0.00 in0.0 mm 0.00 in0.0 mm 0.00 in0.0 mm
01:30 AM 56.8°F13.8°C 51.4°F10.8°C 82% 1.6 mph ESE2.6 kmh ESE 3.8 mph6.1 kmh 29.84 in1010.5 mb 0.00 in0.0 mm 0.00 in0.0 mm 0.00 in0.0 mm
01:20 AM 56.8°F13.8°C 51.7°F10.9°C 83% 0.7 mph E1.1 kmh E 3.1 mph5.0 kmh 29.84 in1010.5 mb 0.00 in0.0 mm 0.00 in0.0 mm 0.00 in0.0 mm
01:10 AM 56.8°F13.8°C 51.7°F10.9°C 83% 0.7 mph S1.1 kmh S 2.2 mph3.5 kmh 29.85 in1010.8 mb 0.00 in0.0 mm 0.00 in0.0 mm 0.00 in0.0 mm
01:00 AM 56.8°F13.8°C 51.7°F10.9°C 83% Calm Calm 2.2 mph3.5 kmh 29.85 in1010.8 mb 0.00 in0.0 mm 0.00 in0.0 mm 0.00 in0.0 mm
12:50 AM 56.8°F13.8°C 51.7°F10.9°C 83% 1.6 mph SSE2.6 kmh SSE 2.2 mph3.5 kmh 29.85 in1010.8 mb 0.00 in0.0 mm 0.00 in0.0 mm 0.00 in0.0 mm
12:40 AM 56.8°F13.8°C 51.7°F10.9°C 83% Calm Calm 2.2 mph3.5 kmh 29.85 in1010.8 mb 0.00 in0.0 mm 0.00 in0.0 mm 0.00 in0.0 mm
12:30 AM 57.0°F13.9°C 51.9°F11.1°C 83% 0.7 mph W1.1 kmh W 1.6 mph2.6 kmh 29.86 in1011.2 mb 0.00 in0.0 mm 0.00 in0.0 mm 0.00 in0.0 mm
12:20 AM 57.4°F14.1°C 52.6°F11.4°C 84% Calm Calm 0.7 mph1.1 kmh 29.86 in1011.2 mb 0.00 in0.0 mm 0.00 in0.0 mm 0.00 in0.0 mm
12:10 AM 57.4°F14.1°C 52.6°F11.4°C 84% Calm Calm 0.7 mph1.1 kmh 29.86 in1011.2 mb 0.00 in0.0 mm 0.00 in0.0 mm 0.00 in0.0 mm
12:00 AM 57.4°F14.1°C 52.6°F11.4°C 84% Calm Calm 1.6 mph2.6 kmh 29.86 in1011.2 mb 0.00 in0.0 mm 0.00 in0.0 mm 0.00 in0.0 mm